Hovedside
METAR-TAF:

METAR-TAF

Lufthavner :

Kiruna, Sverige

Kiruna lufthavn

breddegrad: 67-49N, lengdegrad: 020-20E, høyde over havet: 452 m

Gjeldene værobservasjon

Denne rapporten ble laget for 11 minutter siden, klokken 07:20 UTC
Vind 7 kt fra Øst
Temperatur 0°C
Luftfuktighet 100%
Trykk 997 hPa
Sikt 10 km eller mer
Overskyet i en høyde av 500 ft
lett snø, dis

METAR: ESNQ 210720Z 10007KT 9999 -SN BR OVC005 00/M00 Q0997

Tid: 09:31 (07:31 UTC)

Varsel

Denne rapporten ble laget for 2 timer og 1 minutter siden, klokken 05:30 UTC
Varsel gyldig fra 21. klokken 06 UTC til 21. klokken 10 UTC
Vind 4 kt fra Øst
Sikt: 8000 m
Overskyet i en høyde av 300 ft
lett snø
Midlertidig
fra 21. klokken 06 UTC til 21. klokken 10 UTC
Sikt: 3000 m
Brutte skyer i en høyde av 1000 ft
lett snø, regn, dis

TAF: ESNQ 210530Z 2106/2110 10004KT 8000 -SN OVC003 TEMPO 2106/2110 3000 -SNRA BR BKN010

Værobservasjoner og værvarsel for over 4000 flyplasser (METAR- og TAF-rapporter).

Tilgjengelige stasjoner er representert av de røde og gule prikkene på kartet.

Hold musepekeren over prikken for å se navnet på stasjonen.

Klikk så for å se værobservasjoner og -varsler.

For å forandre kartet kan du klikke på den grønne knappen med svart kryss for å zoome inn, på den grønne knappen med strek for å zoome ut, eller på de grønne pilene for å se tilstøtende kart.


METAR-TAF: